Time;durP1;ratioP1;P1;durP2;ratioP2;P2;SDS_P1;SDS_P2;PMS_P1;PMS_P2;Temp;Humidity;BMP_temperature;BMP_pressure;BME280_temperature;BME280_humidity;BME280_pressure;Samples;Min_cycle;Max_cycle;Signal;HPM_P1;HPM_P2
2022/12/17 13:06:53;;;;;;;30.40;15.77;;;0.40;95.00;;;;;;5013415;28;20112;-58
2022/12/17 13:09:22;;;;;;;27.23;15.98;;;0.10;94.50;;;;;;5011409;28;20610;-58
2022/12/17 13:11:58;;;;;;;27.95;18.33;;;-0.10;95.00;;;;;;5011683;28;20038;-59
2022/12/17 13:14:35;;;;;;;32.53;17.25;;;-0.40;95.40;;;;;;5010934;28;20087;-58
2022/12/17 13:17:04;;;;;;;26.73;16.13;;;-0.60;95.90;;;;;;5010225;28;20030;-58
2022/12/17 13:19:39;;;;;;;31.17;16.65;;;-0.70;96.60;;;;;;5010834;28;20190;-59
2022/12/17 13:22:26;;;;;;;32.22;17.05;;;-0.60;96.90;;;;;;5010293;28;20030;-59
2022/12/17 13:24:55;;;;;;;33.15;17.90;;;-0.70;96.40;;;;;;5011469;28;20180;-59
2022/12/17 13:27:35;;;;;;;32.92;17.48;;;-0.70;97.20;;;;;;5010318;28;20034;-58
2022/12/17 13:30:29;;;;;;;26.13;15.25;;;-0.50;97.70;;;;;;5015322;28;20044;-58
2022/12/17 13:33:25;;;;;;;30.27;16.58;;;-0.30;97.60;;;;;;5010835;28;20030;-58
2022/12/17 13:36:29;;;;;;;36.30;16.90;;;-0.10;97.30;;;;;;5009195;28;20045;-58
2022/12/17 13:39:12;;;;;;;29.80;16.40;;;0.00;97.10;;;;;;5010646;28;20057;-58
2022/12/17 13:41:38;;;;;;;25.05;14.27;;;0.10;96.80;;;;;;5008976;28;20490;-58
2022/12/17 13:44:20;;;;;;;20.95;12.55;;;0.00;96.10;;;;;;5010623;28;20036;-59
2022/12/17 13:46:48;;;;;;;27.02;14.73;;;-0.10;96.20;;;;;;5009862;28;21044;-58
2022/12/17 13:49:25;;;;;;;27.23;13.98;;;-0.20;96.70;;;;;;5010428;28;20026;-59
2022/12/17 13:52:04;;;;;;;27.48;16.08;;;-0.30;96.90;;;;;;5010198;28;20576;-57
2022/12/17 13:54:30;;;;;;;25.20;14.55;;;-0.70;96.60;;;;;;4983299;28;20494;-58
2022/12/17 13:57:11;;;;;;;23.73;14.27;;;-1.10;97.30;;;;;;5010135;28;20040;-58
2022/12/17 13:59:37;;;;;;;31.08;15.43;;;-1.10;98.50;;;;;;5009762;28;20038;-57
2022/12/17 14:02:05;;;;;;;28.25;15.80;;;-1.10;98.80;;;;;;5010389;28;20034;-59
2022/12/17 14:04:31;;;;;;;32.90;16.50;;;-1.10;98.70;;;;;;5009811;28;20026;-59
2022/12/17 14:07:02;;;;;;;32.30;16.85;;;-1.20;98.30;;;;;;5010012;28;20052;-57
2022/12/17 14:09:41;;;;;;;32.90;18.42;;;-1.30;98.70;;;;;;5009161;28;20030;-57
2022/12/17 14:12:23;;;;;;;22.15;14.43;;;-1.30;99.20;;;;;;5009202;28;20156;-57
2022/12/17 14:14:56;;;;;;;27.83;15.73;;;-1.30;98.90;;;;;;5009434;28;20410;-57
2022/12/17 14:17:24;;;;;;;35.08;15.18;;;-1.30;99.30;;;;;;5008444;28;20064;-58
2022/12/17 14:20:01;;;;;;;29.50;15.75;;;-1.30;99.30;;;;;;5009103;28;20041;-58
2022/12/17 14:22:34;;;;;;;35.97;16.50;;;-1.40;99.00;;;;;;5008003;28;20080;-56
2022/12/17 14:25:01;;;;;;;33.78;17.65;;;-1.40;99.50;;;;;;4974162;28;20166;-56
2022/12/17 14:27:33;;;;;;;31.27;15.88;;;-1.50;99.50;;;;;;4999001;28;20429;-57
2022/12/17 14:29:59;;;;;;;33.60;17.80;;;-1.40;99.90;;;;;;5009021;28;20041;-57
2022/12/17 14:32:35;;;;;;;28.50;16.95;;;-1.40;99.90;;;;;;5009797;28;20045;-59
2022/12/17 14:35:01;;;;;;;30.95;17.38;;;-1.50;99.70;;;;;;5009851;28;20395;-58
2022/12/17 14:37:28;;;;;;;32.55;18.42;;;-1.60;99.70;;;;;;5008639;28;20065;-58
2022/12/17 14:40:00;;;;;;;34.22;19.02;;;-1.70;99.90;;;;;;5009027;28;20025;-56
2022/12/17 14:42:29;;;;;;;35.88;19.23;;;-1.80;99.90;;;;;;5009685;28;20026;-57
2022/12/17 14:45:20;;;;;;;39.40;19.95;;;-2.00;99.90;;;;;;5008005;28;20513;-58
2022/12/17 14:48:03;;;;;;;47.95;20.67;;;-2.30;99.90;;;;;;5008352;28;20512;-57
2022/12/17 14:50:31;;;;;;;40.22;19.80;;;-2.50;99.90;;;;;;5009029;28;20029;-56
2022/12/17 14:52:59;;;;;;;33.83;19.20;;;-2.50;99.90;;;;;;5008006;28;20026;-57
2022/12/17 14:55:31;;;;;;;39.50;18.52;;;-2.70;99.90;;;;;;5009921;28;20457;-57
2022/12/17 14:58:12;;;;;;;41.60;19.75;;;-2.80;99.90;;;;;;5008914;28;20033;-58
2022/12/17 15:00:55;;;;;;;40.45;20.48;;;-3.00;99.90;;;;;;5009060;28;20046;-57
2022/12/17 15:03:30;;;;;;;42.72;21.08;;;-3.20;99.90;;;;;;5010318;28;20136;-57
2022/12/17 15:06:05;;;;;;;38.85;19.92;;;-3.40;99.90;;;;;;5006555;28;20030;-58
2022/12/17 15:08:42;;;;;;;39.45;18.95;;;-3.60;99.90;;;;;;5008827;28;20510;-59
2022/12/17 15:11:11;;;;;;;39.90;19.08;;;-3.70;99.90;;;;;;5007574;28;20041;-57
2022/12/17 15:13:36;;;;;;;46.28;19.58;;;-3.90;99.90;;;;;;5008995;28;20037;-57
2022/12/17 15:16:02;;;;;;;35.17;17.95;;;-4.10;99.90;;;;;;5007378;28;20108;-58
2022/12/17 15:18:28;;;;;;;34.78;17.73;;;-4.30;99.90;;;;;;5008353;28;20026;-56
2022/12/17 15:20:53;;;;;;;40.10;17.40;;;-4.50;99.90;;;;;;5009002;28;20034;-58
2022/12/17 15:23:21;;;;;;;41.28;19.50;;;-4.70;99.90;;;;;;5008789;28;20057;-58
2022/12/17 15:25:49;;;;;;;35.38;18.55;;;-4.90;99.90;;;;;;5008116;28;20034;-57
2022/12/17 15:28:16;;;;;;;42.80;19.13;;;-5.10;99.90;;;;;;5008776;28;20521;-59
2022/12/17 15:30:42;;;;;;;37.92;18.48;;;-5.20;99.90;;;;;;5008442;28;20486;-56
2022/12/17 15:33:08;;;;;;;45.08;19.65;;;-5.30;99.90;;;;;;5008362;28;20139;-59
2022/12/17 15:35:35;;;;;;;43.92;19.52;;;-5.40;99.90;;;;;;5007213;28;20029;-56
2022/12/17 15:38:00;;;;;;;49.08;18.05;;;-5.40;99.90;;;;;;5005953;28;20133;-58
2022/12/17 15:40:26;;;;;;;43.17;19.67;;;-5.60;99.90;;;;;;5008691;28;20026;-58
2022/12/17 15:43:10;;;;;;;46.22;17.95;;;-5.60;99.90;;;;;;5006528;28;20099;-56
2022/12/17 15:45:40;;;;;;;37.30;17.40;;;-5.80;99.90;;;;;;5007042;28;20120;-59
2022/12/17 15:48:06;;;;;;;42.65;18.70;;;-5.90;99.90;;;;;;5006824;28;20104;-58
2022/12/17 15:50:32;;;;;;;43.05;20.70;;;-6.00;99.90;;;;;;5006186;28;20571;-58
2022/12/17 15:52:58;;;;;;;43.97;21.33;;;-6.10;99.90;;;;;;5009008;28;20107;-56
2022/12/17 15:55:24;;;;;;;44.97;21.13;;;-6.10;99.90;;;;;;5007476;28;20068;-58
2022/12/17 15:57:49;;;;;;;46.30;20.50;;;-6.20;99.90;;;;;;5008964;28;20037;-58
2022/12/17 16:00:15;;;;;;;45.13;21.25;;;-6.20;99.90;;;;;;5007358;28;20030;-57
2022/12/17 16:02:41;;;;;;;55.38;21.40;;;-6.30;99.90;;;;;;5008071;28;20211;-58
2022/12/17 16:05:07;;;;;;;50.75;21.08;;;-6.40;99.90;;;;;;5007447;28;20504;-57
2022/12/17 16:07:33;;;;;;;53.85;22.88;;;-6.40;99.90;;;;;;5007540;28;20025;-58
2022/12/17 16:09:58;;;;;;;53.42;22.45;;;-6.40;99.90;;;;;;5010344;28;20022;-57
2022/12/17 16:12:24;;;;;;;43.65;19.92;;;-6.50;99.90;;;;;;5008693;28;20036;-59
2022/12/17 16:14:50;;;;;;;53.35;22.08;;;-6.50;99.90;;;;;;4998014;28;20053;-57
2022/12/17 16:17:15;;;;;;;58.45;23.08;;;-6.60;99.90;;;;;;5006617;28;20038;-58
2022/12/17 16:19:41;;;;;;;36.30;17.20;;;-6.60;99.90;;;;;;5006021;28;20026;-59
2022/12/17 16:22:07;;;;;;;47.03;20.60;;;-6.70;99.90;;;;;;5008298;28;20052;-58
2022/12/17 16:24:32;;;;;;;35.88;17.38;;;-6.80;99.90;;;;;;5008093;28;20061;-58
2022/12/17 16:26:58;;;;;;;27.88;15.02;;;-7.00;99.90;;;;;;5007646;28;20037;-58
2022/12/17 16:29:24;;;;;;;24.33;13.55;;;-7.10;99.90;;;;;;5008370;28;20528;-59
2022/12/17 16:31:49;;;;;;;21.60;14.10;;;-7.30;99.90;;;;;;5007425;28;20103;-58
2022/12/17 16:34:15;;;;;;;31.38;17.20;;;-7.40;99.90;;;;;;5007963;28;20520;-57
2022/12/17 16:36:41;;;;;;;35.33;16.40;;;-7.50;99.90;;;;;;5009607;28;20048;-57
2022/12/17 16:39:07;;;;;;;35.63;16.60;;;-7.60;99.90;;;;;;5008890;28;20160;-57
2022/12/17 16:41:33;;;;;;;50.50;22.35;;;-7.70;99.90;;;;;;5008209;28;20041;-57
2022/12/17 16:43:59;;;;;;;45.00;20.00;;;-7.70;99.90;;;;;;5007526;28;20113;-58
2022/12/17 16:46:37;;;;;;;54.08;19.90;;;-7.70;99.90;;;;;;5007791;28;20562;-58
2022/12/17 16:49:06;;;;;;;47.22;20.77;;;-7.70;99.90;;;;;;5007018;28;20038;-57
2022/12/17 16:51:31;;;;;;;52.25;24.48;;;-7.70;99.90;;;;;;5008259;28;20090;-58
2022/12/17 16:53:58;;;;;;;71.63;26.00;;;-7.70;99.90;;;;;;5007057;28;20061;-57
2022/12/17 16:56:26;;;;;;;52.78;22.40;;;-7.80;99.90;;;;;;5005531;28;20030;-57
2022/12/17 16:58:55;;;;;;;61.90;24.20;;;-7.80;99.90;;;;;;5007450;28;20099;-57
2022/12/17 17:01:24;;;;;;;59.83;22.63;;;-7.90;99.90;;;;;;5007712;28;20489;-57
2022/12/17 17:03:50;;;;;;;58.38;23.65;;;-8.00;99.90;;;;;;5008050;28;20026;-57
2022/12/17 17:06:17;;;;;;;63.50;25.67;;;-8.10;99.90;;;;;;5007588;28;20049;-56
2022/12/17 17:08:43;;;;;;;55.35;23.95;;;-8.20;99.90;;;;;;5003437;28;20044;-58
2022/12/17 17:11:20;;;;;;;67.78;25.45;;;-8.30;99.90;;;;;;5006617;28;20049;-58
2022/12/17 17:13:50;;;;;;;62.28;25.90;;;-8.30;99.90;;;;;;5005494;28;20034;-57
2022/12/17 17:16:17;;;;;;;53.50;24.70;;;-8.40;99.90;;;;;;5008547;28;20113;-57
2022/12/17 17:18:43;;;;;;;62.75;23.95;;;-8.50;99.90;;;;;;5011288;28;20285;-57
2022/12/17 17:21:30;;;;;;;49.35;21.33;;;-8.50;99.90;;;;;;5009920;28;20056;-57
2022/12/17 17:24:16;;;;;;;38.83;18.15;;;-8.60;99.90;;;;;;5010998;28;20061;-57
2022/12/17 17:26:42;;;;;;;35.28;16.05;;;-8.60;99.90;;;;;;5010060;28;20037;-56
2022/12/17 17:29:09;;;;;;;34.13;16.33;;;-8.70;99.90;;;;;;5010866;28;20030;-56
2022/12/17 17:31:35;;;;;;;39.42;17.85;;;-8.70;99.90;;;;;;5011577;28;20037;-56
2022/12/17 17:34:12;;;;;;;59.50;20.88;;;-8.80;99.90;;;;;;5010609;28;20052;-55
2022/12/17 17:36:38;;;;;;;77.97;26.05;;;-8.80;99.90;;;;;;5010459;28;20037;-57
2022/12/17 17:39:04;;;;;;;75.13;26.27;;;-8.80;99.90;;;;;;5008741;28;20064;-58
2022/12/17 17:41:32;;;;;;;89.43;27.92;;;-8.80;99.90;;;;;;5011269;28;20050;-57
2022/12/17 17:44:03;;;;;;;77.68;29.58;;;-8.80;99.90;;;;;;5011165;28;20030;-57
2022/12/17 17:46:30;;;;;;;92.88;31.52;;;-8.90;99.90;;;;;;5010014;28;20029;-55
2022/12/17 17:49:00;;;;;;;77.15;29.02;;;-8.90;99.90;;;;;;5007319;28;20113;-56
2022/12/17 17:51:29;;;;;;;79.40;27.48;;;-9.00;99.90;;;;;;5008287;28;20107;-57
2022/12/17 17:53:55;;;;;;;59.50;24.15;;;-9.00;99.90;;;;;;5007484;28;20485;-58
2022/12/17 17:56:23;;;;;;;60.35;24.17;;;-9.20;99.90;;;;;;5010012;28;20034;-56
2022/12/17 17:58:52;;;;;;;67.50;24.02;;;-9.30;99.90;;;;;;5007175;28;20151;-56
2022/12/17 18:01:23;;;;;;;63.92;25.50;;;-9.30;99.90;;;;;;5009101;28;20048;-58
2022/12/17 18:03:49;;;;;;;51.80;23.48;;;-9.30;99.90;;;;;;5012925;28;20129;-57
2022/12/17 18:06:15;;;;;;;59.17;24.10;;;-9.40;99.90;;;;;;4983552;28;20064;-58
2022/12/17 18:08:41;;;;;;;61.92;23.30;;;-9.40;99.90;;;;;;4993274;28;20558;-56
2022/12/17 18:11:13;;;;;;;74.68;25.38;;;-9.40;99.90;;;;;;5009394;28;20032;-58
2022/12/17 18:13:54;;;;;;;68.63;26.25;;;-9.40;99.90;;;;;;5009671;28;20029;-56
2022/12/17 18:16:39;;;;;;;65.38;25.35;;;-9.30;99.90;;;;;;5009037;28;20034;-58
2022/12/17 18:19:14;;;;;;;78.43;27.38;;;-9.30;99.90;;;;;;5009836;28;20040;-58
2022/12/17 18:21:40;;;;;;;74.45;26.88;;;-9.20;99.90;;;;;;5011124;28;20017;-57
2022/12/17 18:24:10;;;;;;;78.15;27.58;;;-9.30;99.90;;;;;;5009818;28;20133;-57
2022/12/17 18:26:41;;;;;;;79.22;25.92;;;-9.30;99.90;;;;;;5008522;28;20026;-58
2022/12/17 18:29:13;;;;;;;76.18;27.98;;;-9.30;99.90;;;;;;5008802;28;20076;-58
2022/12/17 18:31:39;;;;;;;94.90;30.73;;;-9.40;99.90;;;;;;5009668;28;20026;-58
2022/12/17 18:34:05;;;;;;;78.47;30.90;;;-9.40;99.90;;;;;;5009223;28;20033;-57
2022/12/17 18:36:34;;;;;;;71.82;27.38;;;-9.50;99.90;;;;;;5010054;28;20037;-57
2022/12/17 18:39:07;;;;;;;69.22;26.88;;;-9.60;99.90;;;;;;5009337;28;20077;-57
2022/12/17 18:44:18;;;;;;;67.30;25.33;;;-9.70;99.90;;;;;;5009562;28;20402;-57
2022/12/17 18:46:44;;;;;;;64.75;25.23;;;-9.80;99.90;;;;;;4985330;28;20057;-58
2022/12/17 18:49:13;;;;;;;66.43;26.05;;;-9.80;99.90;;;;;;5009341;28;20030;-58
2022/12/17 18:51:41;;;;;;;69.15;25.73;;;-9.90;99.90;;;;;;5009727;28;20104;-57
2022/12/17 18:54:11;;;;;;;57.67;23.98;;;-10.00;99.90;;;;;;5008436;28;20048;-58
2022/12/17 18:56:37;;;;;;;50.60;21.98;;;-10.10;99.90;;;;;;5007837;28;20524;-56
2022/12/17 18:59:03;;;;;;;45.75;19.05;;;-10.20;99.90;;;;;;5007192;28;20125;-56
2022/12/17 19:01:32;;;;;;;43.55;19.17;;;-10.20;99.90;;;;;;5006517;28;20157;-57
2022/12/17 19:04:04;;;;;;;62.15;22.75;;;-10.30;99.90;;;;;;5008825;28;20033;-56
2022/12/17 19:06:31;;;;;;;72.45;26.20;;;-10.30;99.90;;;;;;5006787;28;20026;-57
2022/12/17 19:08:57;;;;;;;74.47;26.05;;;-10.30;99.90;;;;;;5009961;28;20041;-56
2022/12/17 19:11:23;;;;;;;66.95;25.20;;;-10.40;99.90;;;;;;5009870;28;20406;-57
2022/12/17 19:13:49;;;;;;;68.72;24.23;;;-10.40;99.90;;;;;;5009466;28;20034;-56
2022/12/17 19:16:24;;;;;;;80.95;25.85;;;-10.40;99.90;;;;;;5007492;28;20037;-56
2022/12/17 19:19:00;;;;;;;104.35;28.90;;;-10.40;99.90;;;;;;5007715;28;20048;-58
2022/12/17 19:21:27;;;;;;;78.45;25.50;;;-10.50;99.90;;;;;;5008376;28;20038;-57
2022/12/17 19:23:58;;;;;;;66.90;24.75;;;-10.50;99.90;;;;;;5008452;28;20030;-56
2022/12/17 19:26:24;;;;;;;79.45;26.83;;;-10.60;99.90;;;;;;5007122;28;20121;-58
2022/12/17 19:28:51;;;;;;;77.65;26.58;;;-10.60;99.90;;;;;;5008690;28;20103;-57
2022/12/17 19:31:19;;;;;;;76.03;27.85;;;-10.60;99.90;;;;;;5007617;28;20029;-56
2022/12/17 19:33:44;;;;;;;88.18;28.05;;;-10.60;99.90;;;;;;5008712;28;20018;-57
2022/12/17 19:36:17;;;;;;;70.15;25.40;;;-10.60;99.90;;;;;;5008142;28;20070;-57
2022/12/17 19:38:43;;;;;;;91.82;27.52;;;-10.70;99.90;;;;;;5007181;28;20042;-57
2022/12/17 19:41:10;;;;;;;86.45;26.33;;;-10.70;99.90;;;;;;5008083;28;20069;-58
2022/12/17 19:43:36;;;;;;;86.20;25.52;;;-10.80;99.90;;;;;;5007533;28;20439;-57
2022/12/17 19:46:04;;;;;;;103.43;27.05;;;-10.80;99.90;;;;;;5007892;28;20045;-58
2022/12/17 19:48:32;;;;;;;101.53;29.35;;;-10.80;99.90;;;;;;5008310;28;20097;-57
2022/12/17 19:50:58;;;;;;;163.77;34.03;;;-10.80;99.90;;;;;;5007235;28;20022;-57
2022/12/17 19:53:26;;;;;;;131.93;32.03;;;-10.70;99.90;;;;;;5008292;28;20021;-58
2022/12/17 19:55:56;;;;;;;123.72;34.13;;;-10.70;99.90;;;;;;5007068;28;20153;-58
2022/12/17 19:58:23;;;;;;;229.73;35.85;;;-10.70;99.90;;;;;;5005987;28;20049;-56
2022/12/17 20:00:49;;;;;;;175.75;39.50;;;-10.70;99.90;;;;;;5008776;28;20448;-57
2022/12/17 20:03:15;;;;;;;174.95;34.72;;;-10.70;99.90;;;;;;5009713;28;20052;-57
2022/12/17 20:05:45;;;;;;;118.50;35.13;;;-10.70;99.90;;;;;;5009014;28;20772;-56
2022/12/17 20:08:11;;;;;;;102.20;30.77;;;-10.80;99.90;;;;;;5007778;28;20045;-56
2022/12/17 20:10:37;;;;;;;92.43;30.88;;;-10.80;99.90;;;;;;5008447;28;20520;-57
2022/12/17 20:13:03;;;;;;;88.22;31.17;;;-10.80;99.90;;;;;;5007709;28;20072;-56
2022/12/17 20:15:29;;;;;;;80.57;28.88;;;-10.80;99.90;;;;;;4997347;28;20038;-56
2022/12/17 20:17:54;;;;;;;85.22;29.15;;;-10.90;99.90;;;;;;5007747;28;20034;-57
2022/12/17 20:20:20;;;;;;;62.78;27.05;;;-11.00;99.90;;;;;;5007629;28;20026;-57
2022/12/17 20:22:45;;;;;;;70.70;26.95;;;-11.00;99.90;;;;;;5007378;28;20018;-58
2022/12/17 20:25:11;;;;;;;70.65;25.73;;;-11.00;99.90;;;;;;5007689;28;20026;-57
2022/12/17 20:27:38;;;;;;;67.82;26.80;;;-11.10;99.90;;;;;;5007485;28;20025;-57
2022/12/17 20:30:05;;;;;;;62.78;25.83;;;-11.10;99.90;;;;;;5007573;28;20402;-55
2022/12/17 20:32:33;;;;;;;69.30;24.30;;;-11.10;99.90;;;;;;5007642;28;20084;-57
2022/12/17 20:34:59;;;;;;;70.20;27.35;;;-11.10;99.90;;;;;;5007388;28;20037;-56
2022/12/17 20:37:25;;;;;;;71.07;24.88;;;-11.20;99.90;;;;;;5007446;28;20033;-57
2022/12/17 20:39:50;;;;;;;59.15;24.38;;;-11.10;99.90;;;;;;5007399;28;20022;-56
2022/12/17 20:42:16;;;;;;;54.15;22.88;;;-11.10;99.90;;;;;;5007493;28;20357;-55
2022/12/17 20:44:42;;;;;;;49.38;23.48;;;-11.20;99.90;;;;;;5007595;28;20498;-57
2022/12/17 20:47:08;;;;;;;40.95;20.15;;;-11.20;99.90;;;;;;5006843;28;20026;-56
2022/12/17 20:49:34;;;;;;;53.40;22.40;;;-11.20;99.90;;;;;;4993081;28;20037;-57
2022/12/17 20:51:59;;;;;;;52.20;24.10;;;-11.20;99.90;;;;;;5010659;28;20680;-56
2022/12/17 20:54:25;;;;;;;46.88;21.25;;;-11.20;99.90;;;;;;5011722;28;20379;-58
2022/12/17 20:56:50;;;;;;;70.93;24.10;;;-11.20;99.90;;;;;;5008629;28;20038;-55
2022/12/17 20:59:18;;;;;;;71.07;23.50;;;-11.20;99.90;;;;;;5010353;28;20034;-58
2022/12/17 21:01:44;;;;;;;68.25;24.83;;;-11.20;99.90;;;;;;5010620;28;20120;-55
2022/12/17 21:04:12;;;;;;;77.32;22.63;;;-11.20;99.90;;;;;;5007783;28;20168;-57
2022/12/17 21:06:45;;;;;;;82.55;24.98;;;-11.30;99.90;;;;;;4997235;28;20026;-58
2022/12/17 21:09:12;;;;;;;73.18;23.38;;;-11.30;99.90;;;;;;5010970;28;20034;-57
2022/12/17 21:11:39;;;;;;;87.57;26.48;;;-11.40;99.90;;;;;;5010315;28;20041;-56
2022/12/17 21:14:11;;;;;;;72.78;24.63;;;-11.40;99.90;;;;;;5011079;28;20120;-57
2022/12/17 21:16:38;;;;;;;76.93;26.92;;;-11.50;99.90;;;;;;5010696;28;20033;-57
2022/12/17 21:19:05;;;;;;;75.03;27.55;;;-11.50;99.90;;;;;;5009956;28;20018;-58
2022/12/17 21:21:33;;;;;;;83.85;27.00;;;-11.50;99.90;;;;;;5010746;28;20014;-58
2022/12/17 21:24:00;;;;;;;82.32;30.73;;;-11.50;99.90;;;;;;5009959;28;20034;-56
2022/12/17 21:26:28;;;;;;;80.40;28.25;;;-11.40;99.90;;;;;;5010445;28;20513;-55
2022/12/17 21:28:58;;;;;;;64.00;27.20;;;-11.40;99.90;;;;;;5008846;28;20026;-57
2022/12/17 21:31:31;;;;;;;78.63;27.73;;;-11.30;99.90;;;;;;5009886;28;20030;-56
2022/12/17 21:33:59;;;;;;;87.57;27.65;;;-11.30;99.90;;;;;;5010180;28;20022;-56
2022/12/17 21:36:26;;;;;;;107.63;29.63;;;-11.30;99.90;;;;;;5010087;28;20581;-57
2022/12/17 21:38:52;;;;;;;87.95;28.25;;;-11.40;99.90;;;;;;4997347;28;20076;-57
2022/12/17 21:41:24;;;;;;;75.03;24.45;;;-11.50;99.90;;;;;;5010133;28;20026;-57
2022/12/17 21:43:55;;;;;;;77.30;26.23;;;-11.70;99.90;;;;;;5009399;28;20149;-57
2022/12/17 21:46:22;;;;;;;73.43;26.38;;;-11.80;99.90;;;;;;5007599;28;20041;-57
2022/12/17 21:48:48;;;;;;;52.72;23.33;;;-11.90;99.90;;;;;;5009837;28;20034;-57
2022/12/17 21:51:14;;;;;;;73.20;26.05;;;-12.00;99.90;;;;;;5010990;28;20033;-56
2022/12/17 21:53:42;;;;;;;71.32;25.38;;;-12.10;99.90;;;;;;5010966;28;20054;-57
2022/12/17 21:56:13;;;;;;;61.30;25.00;;;-12.10;99.90;;;;;;4977354;28;20077;-56
2022/12/17 21:58:40;;;;;;;64.38;23.20;;;-12.20;99.90;;;;;;5010589;28;20621;-57
2022/12/17 22:01:21;;;;;;;67.90;23.08;;;-12.20;99.90;;;;;;5009102;28;20029;-57
2022/12/17 22:03:48;;;;;;;75.85;26.98;;;-12.30;99.90;;;;;;5009693;28;20026;-57
2022/12/17 22:06:15;;;;;;;73.47;25.88;;;-12.30;99.90;;;;;;5009604;28;20124;-58
2022/12/17 22:08:42;;;;;;;75.57;27.60;;;-12.40;99.90;;;;;;5008914;28;20113;-56
2022/12/17 22:11:12;;;;;;;69.72;24.65;;;-12.40;99.90;;;;;;5006573;28;20084;-56
2022/12/17 22:16:24;;;;;;;70.95;26.17;;;-12.50;99.90;;;;;;5008014;28;20040;-57
2022/12/17 22:18:50;;;;;;;74.03;24.25;;;-12.50;99.90;;;;;;5009417;28;20355;-58
2022/12/17 22:21:16;;;;;;;74.05;27.13;;;-12.50;99.90;;;;;;5007185;28;20030;-57
2022/12/17 22:23:45;;;;;;;61.90;23.38;;;-12.50;99.90;;;;;;5009616;28;20029;-57
2022/12/17 22:26:11;;;;;;;76.60;24.83;;;-12.50;99.90;;;;;;5008932;28;20486;-57
2022/12/17 22:28:36;;;;;;;73.00;25.85;;;-12.50;99.90;;;;;;5007730;28;20084;-55
2022/12/17 22:33:50;;;;;;;85.47;28.75;;;-12.50;99.90;;;;;;5008965;28;20044;-56
2022/12/17 22:36:16;;;;;;;104.15;29.63;;;-12.50;99.90;;;;;;5009084;28;20038;-57
2022/12/17 22:38:42;;;;;;;89.32;30.15;;;-12.50;99.90;;;;;;5008320;28;20078;-57
2022/12/17 22:41:08;;;;;;;108.65;32.40;;;-12.40;99.90;;;;;;5010389;28;20470;-57
2022/12/17 22:43:34;;;;;;;83.60;29.35;;;-12.50;99.90;;;;;;5011721;28;20120;-58
2022/12/17 22:46:02;;;;;;;113.97;32.65;;;-12.50;99.90;;;;;;5008080;28;20441;-56
2022/12/17 22:48:29;;;;;;;115.07;32.63;;;-12.50;99.90;;;;;;5010283;28;20021;-57
2022/12/17 22:50:55;;;;;;;106.63;31.27;;;-12.50;99.90;;;;;;5007644;28;20520;-56
2022/12/17 22:53:22;;;;;;;127.43;31.92;;;-12.40;99.90;;;;;;5008279;28;20045;-56
2022/12/17 22:55:48;;;;;;;109.72;31.98;;;-12.40;99.90;;;;;;5009036;28;20064;-58
2022/12/17 22:58:14;;;;;;;111.43;30.60;;;-12.40;99.90;;;;;;5008623;28;20042;-57
2022/12/17 23:00:40;;;;;;;183.73;36.78;;;-12.40;99.90;;;;;;5007488;28;20497;-56
2022/12/17 23:03:05;;;;;;;154.32;33.67;;;-12.40;99.90;;;;;;5008338;28;20034;-56
2022/12/17 23:05:31;;;;;;;118.70;33.45;;;-12.40;99.90;;;;;;5006641;28;20490;-57
2022/12/17 23:07:57;;;;;;;112.10;34.03;;;-12.50;99.90;;;;;;5008624;28;20045;-57
2022/12/17 23:10:25;;;;;;;95.90;31.75;;;-12.50;99.90;;;;;;5008424;28;20034;-55
2022/12/17 23:12:55;;;;;;;93.10;30.80;;;-12.50;99.90;;;;;;5008368;28;20117;-57
2022/12/17 23:15:31;;;;;;;86.03;30.42;;;-12.40;99.90;;;;;;5008967;28;20140;-57
2022/12/17 23:17:59;;;;;;;72.38;28.83;;;-12.40;99.90;;;;;;5007317;28;20030;-57
2022/12/17 23:20:27;;;;;;;78.28;27.60;;;-12.30;99.90;;;;;;5007397;28;20042;-56
2022/12/17 23:22:55;;;;;;;75.97;28.10;;;-12.20;99.90;;;;;;5008540;28;20034;-56
2022/12/17 23:25:22;;;;;;;76.32;27.42;;;-12.20;99.90;;;;;;5006988;28;20030;-57
2022/12/17 23:27:49;;;;;;;88.90;30.15;;;-12.00;99.90;;;;;;5008780;28;20018;-56
2022/12/17 23:30:15;;;;;;;79.68;27.17;;;-11.90;99.90;;;;;;5007357;28;20030;-58
2022/12/17 23:32:42;;;;;;;92.65;31.25;;;-11.80;99.90;;;;;;5008088;28;20061;-57
2022/12/17 23:35:09;;;;;;;91.00;30.00;;;-11.80;99.90;;;;;;5007259;28;20080;-58
2022/12/17 23:37:35;;;;;;;110.50;34.35;;;-11.70;99.90;;;;;;5012834;28;20037;-55
2022/12/17 23:40:01;;;;;;;105.53;31.80;;;-11.70;99.90;;;;;;5008423;28;20029;-56
2022/12/17 23:42:26;;;;;;;135.15;33.97;;;-11.70;99.90;;;;;;5009055;28;20030;-57
2022/12/17 23:44:52;;;;;;;116.10;31.80;;;-11.80;99.90;;;;;;5007975;28;20117;-55
2022/12/17 23:47:18;;;;;;;112.57;32.42;;;-12.00;99.90;;;;;;5007330;28;20804;-58
2022/12/17 23:49:43;;;;;;;101.57;28.58;;;-12.10;99.90;;;;;;5008861;28;20561;-56
2022/12/17 23:52:09;;;;;;;111.18;29.80;;;-12.20;99.90;;;;;;5008112;28;20072;-57
2022/12/17 23:54:35;;;;;;;135.13;31.83;;;-12.30;99.90;;;;;;5008420;28;20463;-57
2022/12/17 23:57:00;;;;;;;130.05;33.15;;;-12.40;99.90;;;;;;5007448;28;20057;-57
2022/12/17 23:59:26;;;;;;;123.28;33.47;;;-12.40;99.90;;;;;;5007715;28;20202;-57
